Time;durP1;ratioP1;P1;durP2;ratioP2;P2;SDS_P1;SDS_P2;PMS_P1;PMS_P2;Temp;Humidity;BMP_temperature;BMP_pressure;BME280_temperature;BME280_humidity;BME280_pressure;Samples;Min_cycle;Max_cycle;Signal;HPM_P1;HPM_P2
2022/11/06 04:03:50;;;;;;;10.88;5.55;;;4.00;99.90;;;;;;6239891;22;20210;-83
2022/11/06 04:06:39;;;;;;;20.17;5.82;;;4.00;99.90;;;;;;5013201;28;20221;-70
2022/11/06 04:14:42;;;;;;;4.88;4.13;;;4.00;99.90;;;;;;5015121;28;20609;-69
2022/11/06 04:17:11;;;;;;;10.88;5.35;;;4.10;99.90;;;;;;5015400;28;20163;-70
2022/11/06 04:19:44;;;;;;;12.10;7.45;;;4.10;99.90;;;;;;5014986;28;20545;-71
2022/11/06 04:22:42;;;;;;;18.15;8.15;;;4.10;99.90;;;;;;5015190;28;20229;-70
2022/11/06 04:28:37;;;;;;;11.18;4.72;;;4.10;99.90;;;;;;5015387;28;20202;-71
2022/11/06 04:31:07;;;;;;;16.85;6.22;;;4.10;99.90;;;;;;5015383;28;20526;-70
2022/11/06 04:33:49;;;;;;;5.95;4.22;;;4.00;99.90;;;;;;5011995;28;20686;-71
2022/11/06 04:36:27;;;;;;;5.43;3.83;;;4.00;99.90;;;;;;5014417;28;20542;-70
2022/11/06 04:39:15;;;;;;;4.57;4.00;;;4.00;99.90;;;;;;5015450;28;20519;-71
2022/11/06 04:41:50;;;;;;;15.13;5.78;;;4.00;99.90;;;;;;4995961;28;20186;-70
2022/11/06 04:44:29;;;;;;;6.97;4.70;;;4.00;99.90;;;;;;5014569;28;20237;-70
2022/11/06 04:47:03;;;;;;;11.05;6.53;;;4.00;99.90;;;;;;5015195;28;20655;-71
2022/11/06 04:49:32;;;;;;;5.47;4.75;;;4.00;99.90;;;;;;5014767;28;20206;-70
2022/11/06 04:52:01;;;;;;;4.80;4.40;;;3.90;99.90;;;;;;4997079;28;20179;-71
2022/11/06 04:54:27;;;;;;;4.43;4.03;;;3.90;99.90;;;;;;5013069;28;20293;-71
2022/11/06 04:56:58;;;;;;;4.67;3.57;;;3.90;99.90;;;;;;5014559;28;20244;-70
2022/11/06 04:59:24;;;;;;;5.03;3.80;;;3.90;99.90;;;;;;5014898;28;20409;-70
2022/11/06 05:01:50;;;;;;;3.57;3.23;;;3.80;99.90;;;;;;5014675;28;20174;-70
2022/11/06 05:04:15;;;;;;;9.40;4.50;;;3.90;99.90;;;;;;5014195;28;20195;-70
2022/11/06 05:06:41;;;;;;;3.80;3.50;;;3.90;99.90;;;;;;5014670;28;20525;-70
2022/11/06 05:09:06;;;;;;;20.77;5.40;;;3.90;99.90;;;;;;5019025;28;20200;-70
2022/11/06 05:11:32;;;;;;;3.63;3.33;;;3.80;99.90;;;;;;5019677;28;20171;-70
2022/11/06 05:13:57;;;;;;;3.40;3.10;;;3.80;99.90;;;;;;5019113;28;20199;-71
2022/11/06 05:16:23;;;;;;;5.00;3.97;;;3.80;99.90;;;;;;5018182;28;20643;-71
2022/11/06 05:18:48;;;;;;;9.67;3.37;;;3.80;99.90;;;;;;4999599;28;20550;-71
2022/11/06 05:23:58;;;;;;;5.03;4.53;;;3.70;99.90;;;;;;5014575;28;20205;-70
2022/11/06 05:26:24;;;;;;;5.93;4.50;;;3.70;99.90;;;;;;5014056;28;20199;-70
2022/11/06 05:28:49;;;;;;;6.57;5.00;;;3.60;99.90;;;;;;5014264;28;20174;-70
2022/11/06 05:31:15;;;;;;;8.23;5.93;;;3.60;99.90;;;;;;5001577;28;20460;-71
2022/11/06 05:33:41;;;;;;;6.87;4.93;;;3.60;99.90;;;;;;5018179;28;20202;-70
2022/11/06 05:36:07;;;;;;;7.37;4.10;;;3.50;99.90;;;;;;5014529;28;20627;-70
2022/11/06 05:38:33;;;;;;;9.35;4.75;;;3.50;99.90;;;;;;5014287;28;20198;-70
2022/11/06 05:40:59;;;;;;;4.97;4.07;;;3.50;99.90;;;;;;5013922;28;20174;-70
2022/11/06 05:43:24;;;;;;;7.43;4.87;;;3.50;99.90;;;;;;5013177;28;20175;-70
2022/11/06 05:45:50;;;;;;;4.90;4.10;;;3.40;99.90;;;;;;5013375;28;20405;-71
2022/11/06 05:48:15;;;;;;;8.97;5.40;;;3.40;99.90;;;;;;4996299;28;20162;-70
2022/11/06 05:50:41;;;;;;;4.27;3.87;;;3.40;99.90;;;;;;5013907;28;20167;-71
2022/11/06 05:53:07;;;;;;;4.43;3.90;;;3.40;99.90;;;;;;5013408;28;20198;-69
2022/11/06 05:55:32;;;;;;;6.50;3.83;;;3.40;99.90;;;;;;5013406;28;20194;-71
2022/11/06 05:57:58;;;;;;;3.43;2.90;;;3.40;99.90;;;;;;5013857;28;20174;-71
2022/11/06 06:00:24;;;;;;;3.80;3.40;;;3.40;99.90;;;;;;4996049;28;20210;-71
2022/11/06 06:02:49;;;;;;;7.47;4.18;;;3.40;99.90;;;;;;5013319;28;20171;-69
2022/11/06 06:05:15;;;;;;;3.80;3.43;;;3.40;99.90;;;;;;5013572;28;20549;-71
2022/11/06 06:07:41;;;;;;;14.90;6.87;;;3.40;99.90;;;;;;5013690;28;20217;-71
2022/11/06 06:10:08;;;;;;;9.23;3.70;;;3.40;99.90;;;;;;5013369;28;21015;-71
2022/11/06 06:12:33;;;;;;;4.80;3.80;;;3.30;99.90;;;;;;5012017;28;20490;-77
2022/11/06 06:14:59;;;;;;;4.77;2.60;;;3.30;99.90;;;;;;4995637;28;20285;-69
2022/11/06 06:17:24;;;;;;;4.37;3.60;;;3.30;99.90;;;;;;5013148;28;20233;-72
2022/11/06 06:19:50;;;;;;;3.30;2.87;;;3.30;99.90;;;;;;5013532;28;20171;-70
2022/11/06 06:22:16;;;;;;;3.17;2.93;;;3.30;99.90;;;;;;5013263;28;20581;-71
2022/11/06 06:24:41;;;;;;;5.37;2.87;;;3.30;99.90;;;;;;5012659;28;20195;-71
2022/11/06 06:27:07;;;;;;;4.70;3.20;;;3.30;99.90;;;;;;5013509;28;20189;-70
2022/11/06 06:29:33;;;;;;;3.40;3.10;;;3.20;99.90;;;;;;5013034;28;20179;-70
2022/11/06 06:32:00;;;;;;;8.20;3.67;;;3.20;99.90;;;;;;5013232;28;20167;-71
2022/11/06 06:34:25;;;;;;;4.65;4.07;;;3.10;99.90;;;;;;5012852;28;20203;-68
2022/11/06 06:36:52;;;;;;;4.97;4.47;;;3.10;99.90;;;;;;4995660;28;20174;-68
2022/11/06 06:39:19;;;;;;;3.83;2.55;;;3.20;99.90;;;;;;5013096;28;20182;-68
2022/11/06 06:41:45;;;;;;;3.70;3.45;;;3.20;99.90;;;;;;5012875;28;20182;-71
2022/11/06 06:44:11;;;;;;;4.22;3.60;;;3.20;99.90;;;;;;5012730;28;20670;-70
2022/11/06 06:46:37;;;;;;;13.90;3.90;;;3.30;99.90;;;;;;5013125;28;20170;-68
2022/11/06 06:49:03;;;;;;;6.57;3.90;;;3.30;99.90;;;;;;5013161;28;20917;-69
2022/11/06 06:51:28;;;;;;;4.80;4.03;;;3.30;99.90;;;;;;5011806;28;20185;-68
2022/11/06 06:53:54;;;;;;;4.47;3.57;;;3.40;99.90;;;;;;4994812;28;20552;-70
2022/11/06 06:56:19;;;;;;;4.80;3.47;;;3.40;99.90;;;;;;5015532;28;20162;-69
2022/11/06 06:58:45;;;;;;;5.50;4.20;;;3.40;99.90;;;;;;5016516;28;20251;-70
2022/11/06 07:01:11;;;;;;;8.43;4.70;;;3.40;99.90;;;;;;5016972;28;20175;-70
2022/11/06 07:03:37;;;;;;;7.90;4.57;;;3.40;99.90;;;;;;5016283;28;20202;-71
2022/11/06 07:06:04;;;;;;;7.47;4.25;;;3.50;99.90;;;;;;5016483;28;20187;-70
2022/11/06 07:08:30;;;;;;;3.80;3.50;;;3.50;99.90;;;;;;5016311;28;20186;-69
2022/11/06 07:11:00;;;;;;;4.90;3.70;;;3.50;99.90;;;;;;5016379;28;20237;-72
2022/11/06 07:13:26;;;;;;;9.50;5.25;;;3.50;99.90;;;;;;5015765;28;20666;-70
2022/11/06 07:15:51;;;;;;;6.23;5.27;;;3.50;99.90;;;;;;5015813;28;20199;-71
2022/11/06 07:18:17;;;;;;;6.30;4.30;;;3.50;99.90;;;;;;5016465;28;20247;-71
2022/11/06 07:20:42;;;;;;;17.03;6.70;;;3.50;99.90;;;;;;5015655;28;20245;-67
2022/11/06 07:23:08;;;;;;;5.83;3.83;;;3.50;99.90;;;;;;5015742;28;20198;-67
2022/11/06 07:25:34;;;;;;;5.43;4.80;;;3.60;99.90;;;;;;5015930;28;20610;-70
2022/11/06 07:28:01;;;;;;;9.93;4.78;;;3.70;99.90;;;;;;5016159;28;20318;-68
2022/11/06 07:30:28;;;;;;;11.20;6.20;;;3.80;99.90;;;;;;5015868;28;20654;-69
2022/11/06 07:32:53;;;;;;;4.03;3.63;;;3.90;99.90;;;;;;5015782;28;20246;-67
2022/11/06 07:35:19;;;;;;;27.17;6.70;;;3.90;99.90;;;;;;5015886;28;20273;-69
2022/11/06 07:37:44;;;;;;;5.47;4.40;;;4.00;99.90;;;;;;5015879;28;20504;-70
2022/11/06 07:40:10;;;;;;;7.30;6.10;;;4.10;99.90;;;;;;5015733;28;20178;-70
2022/11/06 07:42:36;;;;;;;6.67;6.07;;;4.10;99.90;;;;;;4997782;28;20177;-73
2022/11/06 07:45:01;;;;;;;5.87;4.60;;;4.10;99.90;;;;;;5015313;28;20194;-70
2022/11/06 07:47:29;;;;;;;5.83;5.10;;;4.30;99.90;;;;;;5015682;28;20566;-71
2022/11/06 07:49:55;;;;;;;7.80;5.45;;;4.50;99.90;;;;;;5015795;28;20175;-71
2022/11/06 07:52:21;;;;;;;6.00;4.63;;;4.70;99.90;;;;;;4997317;28;20242;-69
2022/11/06 07:54:47;;;;;;;7.15;5.15;;;4.80;99.90;;;;;;5013799;28;20230;-70
2022/11/06 07:57:13;;;;;;;6.37;5.77;;;5.10;99.90;;;;;;5015121;28;20180;-69
2022/11/06 07:59:38;;;;;;;9.57;5.87;;;5.20;99.90;;;;;;5015511;28;20402;-70
2022/11/06 08:02:04;;;;;;;8.07;5.63;;;5.50;99.90;;;;;;4997724;28;20181;-69
2022/11/06 08:04:29;;;;;;;9.70;5.83;;;5.90;99.90;;;;;;5015062;28;20256;-70
2022/11/06 08:06:57;;;;;;;13.20;7.47;;;6.40;99.90;;;;;;5013772;28;20202;-69
2022/11/06 08:09:24;;;;;;;8.80;6.38;;;7.10;99.90;;;;;;4997885;28;20385;-70
2022/11/06 08:11:50;;;;;;;10.00;7.15;;;7.90;99.90;;;;;;5014624;28;20269;-69
2022/11/06 08:14:16;;;;;;;8.00;6.00;;;8.70;99.90;;;;;;5014231;28;20746;-71
2022/11/06 08:16:41;;;;;;;5.83;5.30;;;9.80;99.90;;;;;;5014958;28;20449;-69
2022/11/06 08:19:07;;;;;;;3.60;3.30;;;10.60;99.90;;;;;;5015350;28;20426;-70
2022/11/06 08:21:33;;;;;;;6.13;3.77;;;11.20;99.90;;;;;;5015381;28;20170;-71
2022/11/06 08:23:58;;;;;;;3.30;3.10;;;11.60;99.90;;;;;;5014043;28;20275;-71
2022/11/06 08:26:25;;;;;;;4.07;3.77;;;;;;;;;;5015158;28;20418;-73
2022/11/06 08:28:51;;;;;;;3.93;3.53;;;;;;;;;;5015073;28;20235;-70
2022/11/06 08:31:16;;;;;;;4.07;3.57;;;12.00;99.90;;;;;;5015087;28;20418;-70
2022/11/06 08:33:42;;;;;;;4.70;3.80;;;13.80;99.90;;;;;;5014478;28;21042;-67
2022/11/06 08:36:08;;;;;;;3.23;2.93;;;14.20;99.90;;;;;;5013055;28;20605;-69
2022/11/06 08:38:35;;;;;;;3.70;3.40;;;14.60;99.90;;;;;;4996592;28;20606;-68
2022/11/06 08:41:09;;;;;;;3.57;3.30;;;15.20;99.90;;;;;;5014122;28;20432;-73
2022/11/06 08:43:36;;;;;;;4.00;3.23;;;15.60;99.90;;;;;;5014227;28;20423;-71
2022/11/06 08:46:07;;;;;;;4.03;3.70;;;16.00;99.90;;;;;;5014398;28;20432;-70
2022/11/06 08:48:33;;;;;;;4.93;4.00;;;16.60;99.90;;;;;;5014593;28;20402;-68
2022/11/06 08:50:59;;;;;;;4.13;3.73;;;17.00;99.90;;;;;;5014235;28;20508;-70
2022/11/06 08:53:24;;;;;;;4.50;4.10;;;17.00;97.70;;;;;;4995790;28;20432;-72
2022/11/06 08:55:50;;;;;;;4.80;4.40;;;17.20;98.60;;;;;;5013991;28;20634;-71
2022/11/06 08:58:16;;;;;;;4.23;3.87;;;17.40;96.50;;;;;;5014328;28;20171;-72
2022/11/06 09:00:41;;;;;;;4.07;3.70;;;17.60;96.40;;;;;;5012552;28;20269;-72
2022/11/06 09:03:10;;;;;;;4.33;4.03;;;17.90;96.60;;;;;;5013799;28;20184;-73
2022/11/06 09:05:40;;;;;;;4.40;4.00;;;18.10;95.80;;;;;;5013791;28;20566;-73
2022/11/06 09:08:06;;;;;;;4.80;4.40;;;18.30;95.00;;;;;;5012849;28;20448;-72
2022/11/06 09:10:31;;;;;;;5.07;4.60;;;18.50;94.50;;;;;;5012449;28;20896;-72
2022/11/06 09:12:58;;;;;;;4.40;4.03;;;18.20;93.00;;;;;;5013096;28;20445;-74
2022/11/06 09:15:24;;;;;;;3.97;3.63;;;18.10;93.70;;;;;;5012049;28;20571;-73
2022/11/06 09:17:50;;;;;;;4.80;4.30;;;17.70;93.50;;;;;;5013826;28;20409;-74
2022/11/06 09:20:19;;;;;;;4.90;4.50;;;17.70;94.30;;;;;;5011747;28;20475;-75
2022/11/06 09:22:45;;;;;;;5.07;4.57;;;17.70;93.70;;;;;;5013556;28;20790;-71
2022/11/06 09:25:11;;;;;;;5.20;4.70;;;17.40;93.20;;;;;;5013541;28;20528;-70
2022/11/06 09:27:57;;;;;;;5.07;4.57;;;17.40;93.40;;;;;;5013842;28;20431;-71
2022/11/06 09:30:24;;;;;;;4.97;4.50;;;17.40;94.50;;;;;;5012867;28;20412;-72
2022/11/06 09:32:55;;;;;;;5.23;4.73;;;17.50;94.70;;;;;;5012944;28;20426;-70
2022/11/06 09:35:23;;;;;;;4.90;4.40;;;17.60;94.40;;;;;;5013612;28;20451;-71
2022/11/06 09:37:49;;;;;;;5.10;4.70;;;17.50;94.10;;;;;;5013550;28;20406;-70
2022/11/06 09:40:33;;;;;;;5.27;4.87;;;17.40;94.40;;;;;;5013241;28;20396;-70
2022/11/06 09:43:17;;;;;;;4.73;4.33;;;17.30;94.50;;;;;;5013352;28;20455;-72
2022/11/06 09:45:44;;;;;;;4.83;4.43;;;17.30;94.50;;;;;;5013460;28;20457;-72
2022/11/06 09:48:10;;;;;;;5.30;4.80;;;17.40;93.90;;;;;;4995699;28;20415;-74
2022/11/06 09:50:40;;;;;;;5.37;4.90;;;17.30;94.00;;;;;;5012927;28;20429;-71
2022/11/06 09:53:15;;;;;;;6.00;5.40;;;17.30;93.50;;;;;;5013245;28;20195;-72
2022/11/06 09:55:43;;;;;;;7.90;4.57;;;17.20;93.20;;;;;;5013167;28;20421;-72
2022/11/06 09:58:12;;;;;;;5.90;5.17;;;16.90;93.80;;;;;;5012157;28;20456;-73
2022/11/06 10:00:39;;;;;;;5.83;5.23;;;16.80;94.20;;;;;;4995657;28;20800;-74
2022/11/06 10:03:14;;;;;;;4.53;4.13;;;16.80;94.60;;;;;;5012932;28;20437;-72
2022/11/06 10:05:41;;;;;;;4.57;4.17;;;16.90;94.10;;;;;;4995312;28;20416;-73
2022/11/06 10:08:29;;;;;;;5.27;4.77;;;16.80;94.00;;;;;;5013383;28;20423;-72
2022/11/06 10:11:15;;;;;;;5.50;4.67;;;16.70;93.80;;;;;;5013068;28;20400;-74
2022/11/06 10:13:58;;;;;;;6.50;4.60;;;16.60;94.10;;;;;;5012867;28;20798;-72
2022/11/06 10:16:48;;;;;;;4.90;4.40;;;16.60;94.50;;;;;;5012786;28;20416;-72
2022/11/06 10:19:25;;;;;;;5.67;4.60;;;16.50;94.30;;;;;;5013460;28;20488;-71
2022/11/06 10:22:08;;;;;;;5.10;4.70;;;16.30;94.60;;;;;;5013005;28;20416;-71
2022/11/06 10:24:44;;;;;;;4.97;4.50;;;16.20;94.60;;;;;;5009486;28;20442;-71
2022/11/06 10:27:21;;;;;;;5.73;5.17;;;16.00;95.00;;;;;;5013029;28;20432;-71
2022/11/06 10:29:59;;;;;;;5.60;4.87;;;16.00;95.20;;;;;;5012849;28;20425;-73
2022/11/06 10:32:42;;;;;;;3.90;3.60;;;16.00;95.00;;;;;;5016602;28;20431;-72
2022/11/06 10:35:19;;;;;;;4.73;4.20;;;15.90;95.30;;;;;;5015795;28;20474;-70
2022/11/06 10:38:12;;;;;;;4.60;3.53;;;15.80;95.50;;;;;;5016729;28;20425;-71
2022/11/06 10:40:38;;;;;;;4.10;3.70;;;15.70;96.30;;;;;;5029382;28;20423;-71
2022/11/06 10:43:24;;;;;;;4.87;4.40;;;15.70;96.00;;;;;;5036407;28;20420;-70
2022/11/06 10:46:16;;;;;;;3.40;3.10;;;15.80;95.70;;;;;;5008510;28;20422;-71
2022/11/06 10:49:10;;;;;;;4.00;3.43;;;15.90;95.90;;;;;;5015155;28;20508;-70
2022/11/06 10:52:10;;;;;;;3.90;3.50;;;15.90;95.60;;;;;;4998275;28;20466;-69
2022/11/06 10:54:52;;;;;;;3.90;3.50;;;15.90;95.20;;;;;;5016348;28;20984;-70
2022/11/06 10:57:21;;;;;;;4.20;3.50;;;15.80;95.20;;;;;;5016059;28;20505;-71
2022/11/06 10:59:49;;;;;;;3.63;3.20;;;15.60;95.50;;;;;;5016595;28;20431;-73
2022/11/06 11:02:34;;;;;;;4.60;4.10;;;15.20;95.80;;;;;;5016147;28;20435;-73
2022/11/06 11:05:00;;;;;;;4.87;2.90;;;14.80;96.30;;;;;;4996966;28;20427;-71
2022/11/06 11:07:31;;;;;;;5.53;3.57;;;14.40;96.90;;;;;;4996313;28;20413;-71
2022/11/06 11:09:56;;;;;;;4.77;3.83;;;14.10;97.60;;;;;;5016592;28;20393;-71
2022/11/06 11:12:27;;;;;;;4.27;3.87;;;13.90;98.20;;;;;;5016276;28;20451;-72
2022/11/06 11:15:22;;;;;;;6.73;4.13;;;13.70;98.80;;;;;;5015587;28;20214;-71
2022/11/06 11:18:06;;;;;;;4.27;3.60;;;13.60;99.50;;;;;;5015141;28;20497;-70
2022/11/06 11:20:35;;;;;;;3.67;3.10;;;13.40;99.90;;;;;;4998397;28;20416;-68
2022/11/06 11:23:20;;;;;;;3.60;3.30;;;13.20;99.90;;;;;;5015687;28;20475;-67
2022/11/06 11:25:52;;;;;;;4.97;3.13;;;13.10;99.90;;;;;;5016459;28;20406;-68
2022/11/06 11:28:33;;;;;;;3.37;2.87;;;13.00;99.90;;;;;;5016179;28;20402;-68
2022/11/06 11:31:14;;;;;;;3.97;3.23;;;12.90;99.90;;;;;;5015467;28;20973;-67
2022/11/06 11:33:46;;;;;;;3.20;2.90;;;12.70;99.90;;;;;;5015540;28;20555;-67
2022/11/06 11:36:12;;;;;;;3.40;3.10;;;12.60;99.90;;;;;;5014571;28;20421;-68
2022/11/06 11:38:39;;;;;;;3.40;3.10;;;12.50;99.90;;;;;;5015975;28;20406;-67
2022/11/06 11:41:20;;;;;;;2.83;2.57;;;12.50;99.90;;;;;;5015407;28;20189;-68
2022/11/06 11:44:12;;;;;;;3.10;2.80;;;12.40;99.90;;;;;;4998925;28;20448;-67
2022/11/06 11:47:18;;;;;;;2.57;2.37;;;12.50;99.90;;;;;;5006972;28;20417;-66
2022/11/06 11:49:43;;;;;;;2.80;2.60;;;12.50;99.90;;;;;;5015680;28;20399;-67
2022/11/06 11:52:15;;;;;;;2.67;1.87;;;12.60;99.90;;;;;;5015310;28;20474;-68
2022/11/06 11:54:47;;;;;;;2.67;2.40;;;12.50;99.90;;;;;;5015018;28;20209;-68
2022/11/06 11:57:22;;;;;;;2.10;1.73;;;12.50;99.90;;;;;;5015263;28;20778;-69
2022/11/06 12:00:04;;;;;;;1.87;1.73;;;12.40;99.90;;;;;;5014421;28;20482;-68
2022/11/06 12:02:41;;;;;;;1.80;1.70;;;12.40;99.90;;;;;;5015313;28;20420;-67
2022/11/06 12:05:12;;;;;;;1.80;1.70;;;12.40;99.90;;;;;;5013536;28;20478;-68
2022/11/06 12:07:43;;;;;;;3.03;2.80;;;12.40;99.90;;;;;;5012733;28;20438;-69
2022/11/06 12:10:24;;;;;;;2.27;2.10;;;12.40;99.90;;;;;;5008784;28;20470;-73
2022/11/06 12:12:52;;;;;;;2.13;1.93;;;12.30;99.90;;;;;;5012630;28;20452;-69
2022/11/06 12:15:25;;;;;;;4.40;2.90;;;12.20;99.90;;;;;;5015467;28;20436;-68
2022/11/06 12:17:51;;;;;;;2.70;2.50;;;12.20;99.90;;;;;;5015215;28;20412;-68
2022/11/06 12:20:24;;;;;;;10.30;4.27;;;12.10;99.90;;;;;;5014747;28;20648;-70
2022/11/06 12:22:53;;;;;;;6.50;3.60;;;12.10;99.90;;;;;;5010739;28;20185;-68
2022/11/06 12:25:24;;;;;;;3.47;2.97;;;12.10;99.90;;;;;;5014531;28;20454;-69
2022/11/06 12:27:58;;;;;;;2.80;2.57;;;12.00;99.90;;;;;;5014886;28;20749;-67
2022/11/06 12:30:23;;;;;;;2.10;1.60;;;11.90;99.90;;;;;;5014612;28;20408;-70
2022/11/06 12:33:14;;;;;;;2.20;2.00;;;11.80;99.90;;;;;;5012605;28;20936;-70
2022/11/06 12:35:47;;;;;;;2.40;2.20;;;11.70;99.90;;;;;;4996635;28;20477;-69
2022/11/06 12:38:40;;;;;;;1.77;1.40;;;11.70;99.90;;;;;;5014057;28;20406;-68
2022/11/06 12:41:11;;;;;;;2.00;1.85;;;11.70;99.90;;;;;;5014077;28;20403;-68
2022/11/06 12:43:46;;;;;;;2.50;2.30;;;11.60;99.90;;;;;;5013685;28;20217;-70
2022/11/06 12:46:24;;;;;;;2.25;2.05;;;11.60;99.90;;;;;;5014593;28;20254;-68
2022/11/06 12:49:27;;;;;;;3.65;1.55;;;11.50;99.90;;;;;;5015205;28;20254;-69
2022/11/06 12:52:04;;;;;;;1.67;1.58;;;11.50;99.90;;;;;;5014755;28;20841;-68
2022/11/06 12:54:36;;;;;;;3.08;1.90;;;11.60;99.90;;;;;;5013746;28;20630;-67
2022/11/06 12:57:39;;;;;;;2.55;2.30;;;11.50;99.90;;;;;;5014394;28;20665;-67
2022/11/06 13:00:17;;;;;;;3.00;1.90;;;11.50;99.90;;;;;;5014556;28;20171;-68
2022/11/06 13:03:21;;;;;;;2.17;2.07;;;11.50;99.90;;;;;;5014364;28;20178;-68
2022/11/06 13:06:04;;;;;;;1.67;1.58;;;11.50;99.90;;;;;;5013968;28;20455;-68
2022/11/06 13:08:35;;;;;;;1.85;1.75;;;11.50;99.90;;;;;;5013648;28;20647;-69
2022/11/06 13:11:06;;;;;;;15.10;9.55;;;11.50;99.90;;;;;;5013268;28;20643;-69
2022/11/06 13:13:35;;;;;;;6.20;3.90;;;11.40;99.90;;;;;;5013066;28;20281;-69
2022/11/06 13:16:15;;;;;;;2.22;2.08;;;11.40;99.90;;;;;;5013454;28;20402;-68
2022/11/06 13:18:47;;;;;;;2.70;2.50;;;11.40;99.90;;;;;;5013537;28;20508;-68
2022/11/06 13:21:53;;;;;;;3.25;3.05;;;11.40;99.90;;;;;;5013492;28;20402;-68
2022/11/06 13:24:39;;;;;;;1.95;1.80;;;11.40;99.90;;;;;;5013094;28;20202;-69
2022/11/06 13:27:33;;;;;;;2.30;2.10;;;11.50;99.90;;;;;;5013335;28;20717;-68
2022/11/06 13:30:12;;;;;;;2.30;2.10;;;11.60;99.90;;;;;;5011401;28;20199;-68
2022/11/06 13:32:40;;;;;;;2.67;2.47;;;11.70;99.90;;;;;;5013263;28;20214;-70
2022/11/06 13:35:13;;;;;;;2.00;1.90;;;11.60;99.90;;;;;;5013202;28;20465;-69
2022/11/06 13:37:41;;;;;;;1.90;1.70;;;11.60;99.90;;;;;;5013082;28;20415;-69
2022/11/06 13:40:19;;;;;;;1.70;1.60;;;11.70;99.90;;;;;;5012962;28;20415;-70
2022/11/06 13:42:55;;;;;;;1.60;1.50;;;11.70;99.90;;;;;;5012728;28;20818;-68
2022/11/06 13:45:23;;;;;;;1.33;1.33;;;11.70;99.90;;;;;;4995676;28;20443;-69
2022/11/06 13:48:10;;;;;;;2.03;1.90;;;11.80;99.90;;;;;;5012985;28;20787;-68
2022/11/06 13:50:48;;;;;;;1.90;1.63;;;11.80;99.90;;;;;;5012972;28;20395;-69
2022/11/06 13:53:43;;;;;;;1.85;1.52;;;11.90;99.90;;;;;;5012585;28;20452;-68
2022/11/06 13:56:31;;;;;;;2.87;2.67;;;11.80;99.90;;;;;;5012430;28;20187;-68
2022/11/06 13:59:20;;;;;;;3.85;2.10;;;11.80;99.90;;;;;;4991945;28;20846;-68
2022/11/06 14:02:17;;;;;;;1.73;1.63;;;11.80;99.90;;;;;;5006915;28;20187;-69
2022/11/06 14:05:03;;;;;;;2.05;1.95;;;11.70;99.90;;;;;;4961008;28;1455636;-68
2022/11/06 14:07:31;;;;;;;2.03;1.93;;;11.70;99.90;;;;;;4995598;28;20183;-68
2022/11/06 14:09:57;;;;;;;1.67;1.50;;;11.60;99.90;;;;;;5012940;28;20426;-69
2022/11/06 14:12:23;;;;;;;1.90;1.80;;;11.50;99.90;;;;;;5013319;28;20382;-69
2022/11/06 14:15:12;;;;;;;2.57;2.37;;;11.50;99.90;;;;;;4995010;28;20488;-70
2022/11/06 14:17:37;;;;;;;1.80;1.70;;;11.30;99.90;;;;;;5013291;28;20200;-69
2022/11/06 14:20:36;;;;;;;2.43;2.23;;;11.30;99.90;;;;;;5013432;28;20180;-68
2022/11/06 14:23:27;;;;;;;1.60;1.50;;;11.20;99.90;;;;;;5012899;28;20166;-68
2022/11/06 14:26:00;;;;;;;2.00;1.63;;;11.10;99.90;;;;;;4995351;28;20184;-66
2022/11/06 14:28:31;;;;;;;2.55;2.35;;;11.10;99.90;;;;;;5013242;28;20398;-67
2022/11/06 14:30:57;;;;;;;2.25;1.92;;;11.00;99.90;;;;;;5013481;28;20223;-68
2022/11/06 14:33:44;;;;;;;2.53;2.20;;;11.00;99.90;;;;;;5012455;28;20203;-69
2022/11/06 14:36:23;;;;;;;1.95;1.83;;;10.90;99.90;;;;;;5012852;28;20807;-68
2022/11/06 14:38:49;;;;;;;2.28;2.08;;;10.80;99.90;;;;;;4995510;28;20218;-69
2022/11/06 14:41:33;;;;;;;2.63;2.42;;;10.80;99.90;;;;;;5012996;28;20214;-67
2022/11/06 14:44:02;;;;;;;2.60;2.40;;;10.70;99.90;;;;;;4995155;28;20207;-69
2022/11/06 14:46:29;;;;;;;2.95;2.60;;;10.70;99.90;;;;;;4995886;28;20180;-68
2022/11/06 14:49:05;;;;;;;2.65;2.45;;;10.60;99.90;;;;;;5012682;28;20266;-68
2022/11/06 14:51:31;;;;;;;2.17;2.03;;;10.60;99.90;;;;;;5012214;28;20229;-66
2022/11/06 14:54:00;;;;;;;2.97;2.67;;;10.50;99.90;;;;;;5012700;28;20216;-65
2022/11/06 14:56:31;;;;;;;2.03;1.92;;;10.50;99.90;;;;;;5011491;28;20211;-69
2022/11/06 14:59:03;;;;;;;2.55;2.35;;;10.40;99.90;;;;;;4991825;28;20184;-65
2022/11/06 15:01:32;;;;;;;1.90;1.80;;;10.30;99.90;;;;;;5011408;28;20202;-67
2022/11/06 15:04:16;;;;;;;4.15;2.63;;;10.30;99.90;;;;;;5010726;28;20218;-67
2022/11/06 15:06:45;;;;;;;1.85;1.75;;;10.20;99.90;;;;;;5010145;28;20203;-69
2022/11/06 15:09:12;;;;;;;2.58;2.35;;;10.10;99.90;;;;;;5011494;28;20175;-67
2022/11/06 15:11:41;;;;;;;3.35;3.05;;;9.90;99.90;;;;;;5018471;28;20189;-66
2022/11/06 15:14:07;;;;;;;2.65;2.45;;;9.90;99.90;;;;;;5010962;28;20268;-69
2022/11/06 15:16:48;;;;;;;3.45;2.40;;;9.80;99.90;;;;;;5009801;28;20183;-67
2022/11/06 15:19:16;;;;;;;3.13;2.83;;;9.70;99.90;;;;;;5017210;28;20178;-68
2022/11/06 15:21:46;;;;;;;2.83;2.40;;;9.60;99.90;;;;;;5016605;28;20258;-68
2022/11/06 15:24:20;;;;;;;3.30;2.83;;;9.60;99.90;;;;;;5015893;28;20198;-66
2022/11/06 15:26:52;;;;;;;3.13;2.90;;;9.50;99.90;;;;;;5016224;28;20202;-68
2022/11/06 15:29:25;;;;;;;4.38;3.97;;;9.50;99.90;;;;;;5015318;28;20174;-66
2022/11/06 15:31:57;;;;;;;3.45;2.83;;;9.50;99.90;;;;;;5015486;28;20205;-67
2022/11/06 15:34:30;;;;;;;3.10;2.80;;;9.40;99.90;;;;;;4999463;28;20585;-67
2022/11/06 15:37:17;;;;;;;5.35;3.35;;;9.40;99.90;;;;;;5015756;28;20253;-67
2022/11/06 15:39:50;;;;;;;3.38;3.03;;;9.30;99.90;;;;;;5015902;28;20206;-66
2022/11/06 15:42:26;;;;;;;4.70;3.80;;;9.20;99.90;;;;;;5016237;28;20159;-65
2022/11/06 15:45:04;;;;;;;4.32;3.70;;;9.20;99.90;;;;;;5015505;28;20226;-68
2022/11/06 15:47:31;;;;;;;3.35;3.15;;;9.10;99.90;;;;;;5016568;28;20642;-65
2022/11/06 15:50:26;;;;;;;3.90;3.60;;;9.10;99.90;;;;;;5015162;28;20197;-69
2022/11/06 15:52:52;;;;;;;3.15;2.95;;;9.00;99.90;;;;;;4936325;29;20192;-67
2022/11/06 15:55:26;;;;;;;2.90;2.42;;;8.90;99.90;;;;;;4936506;29;20557;-69
2022/11/06 15:57:52;;;;;;;4.47;4.03;;;8.80;99.90;;;;;;4936189;29;20538;-66
2022/11/06 16:00:22;;;;;;;4.20;3.15;;;8.80;99.90;;;;;;4938757;29;20180;-69
2022/11/06 16:02:50;;;;;;;2.95;2.65;;;8.70;99.90;;;;;;4938545;29;20178;-66
2022/11/06 16:05:19;;;;;;;5.07;4.00;;;8.70;99.90;;;;;;4946267;29;20321;-67
2022/11/06 16:07:46;;;;;;;3.75;3.38;;;8.60;99.90;;;;;;4945034;29;20180;-67
2022/11/06 16:10:19;;;;;;;3.70;3.28;;;8.60;99.90;;;;;;4941097;29;20562;-66
2022/11/06 16:12:52;;;;;;;4.15;3.75;;;8.50;99.90;;;;;;4937816;29;20166;-67
2022/11/06 16:15:46;;;;;;;3.72;3.42;;;8.50;99.90;;;;;;4955001;29;20209;-70
2022/11/06 16:18:16;;;;;;;3.30;3.00;;;8.50;99.90;;;;;;4944983;29;20208;-70
2022/11/06 16:20:45;;;;;;;2.78;2.50;;;8.50;99.90;;;;;;4941048;29;20188;-68
2022/11/06 16:23:14;;;;;;;2.92;2.63;;;8.50;99.90;;;;;;4935357;29;20197;-70
2022/11/06 16:25:40;;;;;;;3.58;3.28;;;8.50;99.90;;;;;;4943836;29;20207;-69
2022/11/06 16:28:17;;;;;;;3.20;2.90;;;8.50;99.90;;;;;;4946085;29;20511;-66
2022/11/06 16:30:47;;;;;;;4.25;3.67;;;8.50;99.90;;;;;;5004020;28;20569;-71
2022/11/06 16:33:19;;;;;;;5.90;4.60;;;8.50;99.90;;;;;;5003245;28;20422;-73
2022/11/06 16:35:45;;;;;;;3.60;3.30;;;8.50;99.90;;;;;;5015742;28;20645;-69
2022/11/06 16:38:14;;;;;;;6.85;4.38;;;8.50;99.90;;;;;;5017018;28;20259;-70
2022/11/06 16:40:42;;;;;;;3.42;3.22;;;8.50;99.90;;;;;;5017075;28;20238;-71
2022/11/06 16:43:13;;;;;;;3.63;3.33;;;8.60;99.90;;;;;;5016718;28;20193;-72
2022/11/06 16:45:54;;;;;;;3.08;2.88;;;8.60;99.90;;;;;;5001327;28;20195;-68
2022/11/06 16:48:24;;;;;;;3.13;2.80;;;8.60;99.90;;;;;;5017103;28;20179;-68
2022/11/06 16:50:55;;;;;;;5.20;3.95;;;8.60;99.90;;;;;;5017502;28;20500;-68
2022/11/06 16:53:24;;;;;;;9.45;5.72;;;8.70;99.90;;;;;;5015257;28;20684;-69
2022/11/06 16:56:04;;;;;;;6.65;4.70;;;8.70;99.90;;;;;;5016893;28;20552;-68
2022/11/06 16:58:39;;;;;;;3.55;3.25;;;8.80;99.90;;;;;;5017617;28;20772;-72
2022/11/06 17:01:05;;;;;;;5.85;4.57;;;8.70;99.90;;;;;;5014772;28;20245;-70
2022/11/06 17:03:46;;;;;;;6.50;4.37;;;8.70;99.90;;;;;;5013636;28;20317;-71
2022/11/06 17:06:27;;;;;;;4.68;4.28;;;8.70;99.90;;;;;;5014465;28;20559;-68
2022/11/06 17:09:03;;;;;;;4.68;4.10;;;8.80;99.90;;;;;;5014251;28;20210;-66
2022/11/06 17:11:29;;;;;;;8.98;7.43;;;8.70;99.90;;;;;;4996924;28;20205;-70
2022/11/06 17:13:55;;;;;;;9.47;6.67;;;8.70;99.90;;;;;;5013231;28;20202;-68
2022/11/06 17:16:23;;;;;;;4.87;4.27;;;8.70;99.90;;;;;;5014427;28;20411;-66
2022/11/06 17:18:49;;;;;;;4.15;3.85;;;8.70;99.90;;;;;;5012704;28;20635;-67
2022/11/06 17:21:24;;;;;;;6.38;5.03;;;8.70;99.90;;;;;;5014296;28;20167;-66
2022/11/06 17:23:51;;;;;;;5.95;4.38;;;8.70;99.90;;;;;;5013405;28;20287;-64
2022/11/06 17:26:28;;;;;;;6.15;5.55;;;8.70;99.90;;;;;;5014322;28;20504;-65
2022/11/06 17:28:56;;;;;;;4.97;4.28;;;8.70;99.90;;;;;;5013649;28;20177;-67
2022/11/06 17:31:25;;;;;;;2.97;2.70;;;8.70;99.90;;;;;;5013999;28;20193;-67
2022/11/06 17:33:51;;;;;;;4.30;3.45;;;8.70;99.90;;;;;;5013015;28;20217;-67